sensor_id;sensor_type;location;lat;lon;timestamp;temperature;humidity
14995;DHT22;7593;49.006;8.372;2024-03-22T00:02:14;11.80;99.90
14995;DHT22;7593;49.006;8.372;2024-03-22T00:04:40;11.80;99.90
14995;DHT22;7593;49.006;8.372;2024-03-22T00:07:08;11.80;99.90
14995;DHT22;7593;49.006;8.372;2024-03-22T00:09:33;11.70;99.90
14995;DHT22;7593;49.006;8.372;2024-03-22T00:12:00;11.70;99.90
14995;DHT22;7593;49.006;8.372;2024-03-22T00:14:26;11.70;99.90
14995;DHT22;7593;49.006;8.372;2024-03-22T00:16:53;11.70;99.90
14995;DHT22;7593;49.006;8.372;2024-03-22T00:19:18;11.60;99.90
14995;DHT22;7593;49.006;8.372;2024-03-22T00:21:45;11.60;99.90
14995;DHT22;7593;49.006;8.372;2024-03-22T00:24:12;11.60;99.90
14995;DHT22;7593;49.006;8.372;2024-03-22T00:26:39;11.50;99.90
14995;DHT22;7593;49.006;8.372;2024-03-22T00:29:05;11.50;99.90
14995;DHT22;7593;49.006;8.372;2024-03-22T00:31:32;11.40;99.90
14995;DHT22;7593;49.006;8.372;2024-03-22T00:33:57;11.40;99.90
14995;DHT22;7593;49.006;8.372;2024-03-22T00:36:24;11.30;99.90
14995;DHT22;7593;49.006;8.372;2024-03-22T00:38:50;11.30;99.90
14995;DHT22;7593;49.006;8.372;2024-03-22T00:41:18;11.20;99.90
14995;DHT22;7593;49.006;8.372;2024-03-22T00:43:44;11.20;99.90
14995;DHT22;7593;49.006;8.372;2024-03-22T00:46:11;11.20;99.90
14995;DHT22;7593;49.006;8.372;2024-03-22T00:48:36;11.20;99.90
14995;DHT22;7593;49.006;8.372;2024-03-22T00:51:06;11.10;99.90
14995;DHT22;7593;49.006;8.372;2024-03-22T00:53:33;11.10;99.90
14995;DHT22;7593;49.006;8.372;2024-03-22T00:55:59;11.10;99.90
14995;DHT22;7593;49.006;8.372;2024-03-22T00:58:27;11.10;99.90
14995;DHT22;7593;49.006;8.372;2024-03-22T01:00:54;11.00;99.90
14995;DHT22;7593;49.006;8.372;2024-03-22T01:03:20;11.00;99.90
14995;DHT22;7593;49.006;8.372;2024-03-22T01:05:47;11.00;99.90
14995;DHT22;7593;49.006;8.372;2024-03-22T01:08:13;11.00;99.90
14995;DHT22;7593;49.006;8.372;2024-03-22T01:10:40;10.90;99.90
14995;DHT22;7593;49.006;8.372;2024-03-22T01:13:06;10.90;99.90
14995;DHT22;7593;49.006;8.372;2024-03-22T01:15:38;10.90;99.90
14995;DHT22;7593;49.006;8.372;2024-03-22T01:18:04;10.90;99.90
14995;DHT22;7593;49.006;8.372;2024-03-22T01:20:31;10.90;99.90
14995;DHT22;7593;49.006;8.372;2024-03-22T01:22:59;10.80;99.90
14995;DHT22;7593;49.006;8.372;2024-03-22T01:25:26;10.80;99.90
14995;DHT22;7593;49.006;8.372;2024-03-22T01:27:51;10.80;99.90
14995;DHT22;7593;49.006;8.372;2024-03-22T01:30:18;10.70;99.90
14995;DHT22;7593;49.006;8.372;2024-03-22T01:32:45;10.70;99.90
14995;DHT22;7593;49.006;8.372;2024-03-22T01:35:12;10.70;99.90
14995;DHT22;7593;49.006;8.372;2024-03-22T01:37:38;10.60;99.90
14995;DHT22;7593;49.006;8.372;2024-03-22T01:40:07;10.60;99.90
14995;DHT22;7593;49.006;8.372;2024-03-22T01:42:33;10.60;99.90
14995;DHT22;7593;49.006;8.372;2024-03-22T01:45:00;10.50;99.90
14995;DHT22;7593;49.006;8.372;2024-03-22T01:47:26;10.50;99.90
14995;DHT22;7593;49.006;8.372;2024-03-22T01:49:56;10.50;99.90
14995;DHT22;7593;49.006;8.372;2024-03-22T01:52:22;10.40;99.90
14995;DHT22;7593;49.006;8.372;2024-03-22T01:54:49;10.40;99.90
14995;DHT22;7593;49.006;8.372;2024-03-22T01:57:15;10.30;99.90
14995;DHT22;7593;49.006;8.372;2024-03-22T01:59:42;10.30;99.90
14995;DHT22;7593;49.006;8.372;2024-03-22T02:02:08;10.20;99.90
14995;DHT22;7593;49.006;8.372;2024-03-22T02:04:36;10.20;99.90
14995;DHT22;7593;49.006;8.372;2024-03-22T02:07:06;10.10;99.90
14995;DHT22;7593;49.006;8.372;2024-03-22T02:09:33;10.10;99.90
14995;DHT22;7593;49.006;8.372;2024-03-22T02:11:59;10.10;99.90
14995;DHT22;7593;49.006;8.372;2024-03-22T02:14:26;10.10;99.90
14995;DHT22;7593;49.006;8.372;2024-03-22T02:16:52;10.10;99.90
14995;DHT22;7593;49.006;8.372;2024-03-22T02:19:18;10.10;99.90
14995;DHT22;7593;49.006;8.372;2024-03-22T02:21:44;10.10;99.90
14995;DHT22;7593;49.006;8.372;2024-03-22T02:24:12;10.10;99.90
14995;DHT22;7593;49.006;8.372;2024-03-22T02:26:38;10.10;99.90
14995;DHT22;7593;49.006;8.372;2024-03-22T02:29:05;10.10;99.90
14995;DHT22;7593;49.006;8.372;2024-03-22T02:31:31;10.00;99.90
14995;DHT22;7593;49.006;8.372;2024-03-22T02:33:58;10.10;99.90
14995;DHT22;7593;49.006;8.372;2024-03-22T02:36:23;10.10;99.90
14995;DHT22;7593;49.006;8.372;2024-03-22T02:38:50;10.10;99.90
14995;DHT22;7593;49.006;8.372;2024-03-22T02:41:17;10.10;99.90
14995;DHT22;7593;49.006;8.372;2024-03-22T02:43:44;10.10;99.90
14995;DHT22;7593;49.006;8.372;2024-03-22T02:46:10;10.10;99.90
14995;DHT22;7593;49.006;8.372;2024-03-22T02:48:36;10.10;99.90
14995;DHT22;7593;49.006;8.372;2024-03-22T02:51:02;10.10;99.90
14995;DHT22;7593;49.006;8.372;2024-03-22T02:53:29;10.10;99.90
14995;DHT22;7593;49.006;8.372;2024-03-22T02:55:55;10.10;99.90
14995;DHT22;7593;49.006;8.372;2024-03-22T02:58:23;10.10;99.90
14995;DHT22;7593;49.006;8.372;2024-03-22T03:00:49;10.10;99.90
14995;DHT22;7593;49.006;8.372;2024-03-22T03:03:15;10.10;99.90
14995;DHT22;7593;49.006;8.372;2024-03-22T03:05:42;10.10;99.90
14995;DHT22;7593;49.006;8.372;2024-03-22T03:08:09;10.00;99.90
14995;DHT22;7593;49.006;8.372;2024-03-22T03:10:35;9.90;99.90
14995;DHT22;7593;49.006;8.372;2024-03-22T03:13:02;9.90;99.90
14995;DHT22;7593;49.006;8.372;2024-03-22T03:15:29;9.80;99.90
14995;DHT22;7593;49.006;8.372;2024-03-22T03:17:56;9.90;99.90
14995;DHT22;7593;49.006;8.372;2024-03-22T03:20:22;9.80;99.90
14995;DHT22;7593;49.006;8.372;2024-03-22T03:22:48;9.80;99.90
14995;DHT22;7593;49.006;8.372;2024-03-22T03:25:14;9.80;99.90
14995;DHT22;7593;49.006;8.372;2024-03-22T03:27:41;9.80;99.90
14995;DHT22;7593;49.006;8.372;2024-03-22T03:30:07;9.80;99.90
14995;DHT22;7593;49.006;8.372;2024-03-22T03:32:36;9.80;99.90
14995;DHT22;7593;49.006;8.372;2024-03-22T03:35:01;9.80;99.90
14995;DHT22;7593;49.006;8.372;2024-03-22T03:37:28;9.80;99.90
14995;DHT22;7593;49.006;8.372;2024-03-22T03:39:54;9.70;99.90
14995;DHT22;7593;49.006;8.372;2024-03-22T03:42:21;9.70;99.90
14995;DHT22;7593;49.006;8.372;2024-03-22T03:44:46;9.70;99.90
14995;DHT22;7593;49.006;8.372;2024-03-22T03:47:13;9.70;99.90
14995;DHT22;7593;49.006;8.372;2024-03-22T03:49:40;9.60;99.90
14995;DHT22;7593;49.006;8.372;2024-03-22T03:52:07;9.70;99.90
14995;DHT22;7593;49.006;8.372;2024-03-22T03:54:33;9.60;99.90
14995;DHT22;7593;49.006;8.372;2024-03-22T03:56:59;9.60;99.90
14995;DHT22;7593;49.006;8.372;2024-03-22T03:59:25;9.70;99.90
14995;DHT22;7593;49.006;8.372;2024-03-22T04:01:52;9.70;99.90
14995;DHT22;7593;49.006;8.372;2024-03-22T04:04:21;9.70;99.90
14995;DHT22;7593;49.006;8.372;2024-03-22T04:06:49;9.70;99.90
14995;DHT22;7593;49.006;8.372;2024-03-22T04:09:15;9.70;99.90
14995;DHT22;7593;49.006;8.372;2024-03-22T04:11:42;9.70;99.90
14995;DHT22;7593;49.006;8.372;2024-03-22T04:14:07;9.70;99.90
14995;DHT22;7593;49.006;8.372;2024-03-22T04:16:34;9.70;99.90
14995;DHT22;7593;49.006;8.372;2024-03-22T04:19:00;9.80;99.90
14995;DHT22;7593;49.006;8.372;2024-03-22T04:21:27;9.70;99.90
14995;DHT22;7593;49.006;8.372;2024-03-22T04:23:54;9.70;99.90
14995;DHT22;7593;49.006;8.372;2024-03-22T04:26:21;9.80;99.90
14995;DHT22;7593;49.006;8.372;2024-03-22T04:28:47;9.70;99.90
14995;DHT22;7593;49.006;8.372;2024-03-22T04:31:13;9.70;99.90
14995;DHT22;7593;49.006;8.372;2024-03-22T04:33:39;9.70;99.90
14995;DHT22;7593;49.006;8.372;2024-03-22T04:36:06;9.70;99.90
14995;DHT22;7593;49.006;8.372;2024-03-22T04:38:36;9.70;99.90
14995;DHT22;7593;49.006;8.372;2024-03-22T04:41:04;9.70;99.90
14995;DHT22;7593;49.006;8.372;2024-03-22T04:43:31;9.70;99.90
14995;DHT22;7593;49.006;8.372;2024-03-22T04:45:58;9.60;99.90
14995;DHT22;7593;49.006;8.372;2024-03-22T04:48:24;9.60;99.90
14995;DHT22;7593;49.006;8.372;2024-03-22T04:50:51;9.60;99.90
14995;DHT22;7593;49.006;8.372;2024-03-22T04:53:18;9.60;99.90
14995;DHT22;7593;49.006;8.372;2024-03-22T04:55:46;9.60;99.90
14995;DHT22;7593;49.006;8.372;2024-03-22T04:58:15;9.60;99.90
14995;DHT22;7593;49.006;8.372;2024-03-22T05:00:43;9.60;99.90
14995;DHT22;7593;49.006;8.372;2024-03-22T05:03:08;9.60;99.90
14995;DHT22;7593;49.006;8.372;2024-03-22T05:05:36;9.60;99.90
14995;DHT22;7593;49.006;8.372;2024-03-22T05:08:02;9.60;99.90
14995;DHT22;7593;49.006;8.372;2024-03-22T05:10:29;9.60;99.90
14995;DHT22;7593;49.006;8.372;2024-03-22T05:12:55;9.60;99.90
14995;DHT22;7593;49.006;8.372;2024-03-22T05:15:23;9.60;99.90
14995;DHT22;7593;49.006;8.372;2024-03-22T05:17:51;9.60;99.90
14995;DHT22;7593;49.006;8.372;2024-03-22T05:20:18;9.60;99.90
14995;DHT22;7593;49.006;8.372;2024-03-22T05:22:43;9.60;99.90
14995;DHT22;7593;49.006;8.372;2024-03-22T05:25:10;9.70;99.90
14995;DHT22;7593;49.006;8.372;2024-03-22T05:27:36;9.70;99.90
14995;DHT22;7593;49.006;8.372;2024-03-22T05:30:03;9.70;99.90
14995;DHT22;7593;49.006;8.372;2024-03-22T05:32:31;9.70;99.90
14995;DHT22;7593;49.006;8.372;2024-03-22T05:34:57;9.80;99.90
14995;DHT22;7593;49.006;8.372;2024-03-22T05:37:23;9.80;99.90
14995;DHT22;7593;49.006;8.372;2024-03-22T05:39:50;9.80;99.90
14995;DHT22;7593;49.006;8.372;2024-03-22T05:42:16;9.70;99.90
14995;DHT22;7593;49.006;8.372;2024-03-22T05:44:43;9.70;99.90
14995;DHT22;7593;49.006;8.372;2024-03-22T05:47:09;9.70;99.90
14995;DHT22;7593;49.006;8.372;2024-03-22T05:49:37;9.70;99.90
14995;DHT22;7593;49.006;8.372;2024-03-22T05:52:03;9.70;99.90
14995;DHT22;7593;49.006;8.372;2024-03-22T05:54:30;9.70;99.90
14995;DHT22;7593;49.006;8.372;2024-03-22T05:56:56;9.80;99.90
14995;DHT22;7593;49.006;8.372;2024-03-22T05:59:23;9.80;99.90
14995;DHT22;7593;49.006;8.372;2024-03-22T06:01:49;9.90;99.90
14995;DHT22;7593;49.006;8.372;2024-03-22T06:04:15;10.00;99.90
14995;DHT22;7593;49.006;8.372;2024-03-22T06:06:43;10.10;99.90
14995;DHT22;7593;49.006;8.372;2024-03-22T06:09:09;10.10;99.90
14995;DHT22;7593;49.006;8.372;2024-03-22T06:11:36;10.30;99.90
14995;DHT22;7593;49.006;8.372;2024-03-22T06:14:03;10.60;99.90
14995;DHT22;7593;49.006;8.372;2024-03-22T06:16:29;10.80;99.90
14995;DHT22;7593;49.006;8.372;2024-03-22T06:18:56;11.20;99.90
14995;DHT22;7593;49.006;8.372;2024-03-22T06:21:22;11.30;99.90
14995;DHT22;7593;49.006;8.372;2024-03-22T06:23:52;11.40;99.90
14995;DHT22;7593;49.006;8.372;2024-03-22T06:26:18;11.50;99.90
14995;DHT22;7593;49.006;8.372;2024-03-22T06:28:45;11.50;99.90
14995;DHT22;7593;49.006;8.372;2024-03-22T06:31:11;11.50;99.90
14995;DHT22;7593;49.006;8.372;2024-03-22T06:33:38;11.50;99.90
14995;DHT22;7593;49.006;8.372;2024-03-22T06:36:04;11.50;99.90
14995;DHT22;7593;49.006;8.372;2024-03-22T06:38:31;11.50;99.90
14995;DHT22;7593;49.006;8.372;2024-03-22T06:40:58;11.50;99.90
14995;DHT22;7593;49.006;8.372;2024-03-22T06:43:25;11.60;99.90
14995;DHT22;7593;49.006;8.372;2024-03-22T06:45:51;11.60;99.90
14995;DHT22;7593;49.006;8.372;2024-03-22T06:48:18;11.50;99.90
14995;DHT22;7593;49.006;8.372;2024-03-22T06:50:44;11.60;99.90
14995;DHT22;7593;49.006;8.372;2024-03-22T06:53:11;11.70;99.90
14995;DHT22;7593;49.006;8.372;2024-03-22T06:55:37;11.90;99.90
14995;DHT22;7593;49.006;8.372;2024-03-22T06:58:05;12.20;99.90
14995;DHT22;7593;49.006;8.372;2024-03-22T07:00:32;12.50;99.90
14995;DHT22;7593;49.006;8.372;2024-03-22T07:03:00;12.80;99.90
14995;DHT22;7593;49.006;8.372;2024-03-22T07:05:27;13.00;99.90
14995;DHT22;7593;49.006;8.372;2024-03-22T07:07:53;13.40;99.90
14995;DHT22;7593;49.006;8.372;2024-03-22T07:10:22;13.80;99.90
14995;DHT22;7593;49.006;8.372;2024-03-22T07:12:50;14.10;99.90
14995;DHT22;7593;49.006;8.372;2024-03-22T07:15:18;14.40;99.90
14995;DHT22;7593;49.006;8.372;2024-03-22T07:17:44;14.70;99.90
14995;DHT22;7593;49.006;8.372;2024-03-22T07:20:11;14.90;99.90
14995;DHT22;7593;49.006;8.372;2024-03-22T07:22:36;15.00;99.90
14995;DHT22;7593;49.006;8.372;2024-03-22T07:25:03;15.00;99.90
14995;DHT22;7593;49.006;8.372;2024-03-22T07:27:29;15.10;99.90
14995;DHT22;7593;49.006;8.372;2024-03-22T07:29:56;15.10;99.90
14995;DHT22;7593;49.006;8.372;2024-03-22T07:32:23;15.30;99.90
14995;DHT22;7593;49.006;8.372;2024-03-22T07:34:50;15.40;99.90
14995;DHT22;7593;49.006;8.372;2024-03-22T07:37:16;15.50;99.90
14995;DHT22;7593;49.006;8.372;2024-03-22T07:39:43;15.40;99.90
14995;DHT22;7593;49.006;8.372;2024-03-22T07:42:08;15.30;99.90
14995;DHT22;7593;49.006;8.372;2024-03-22T07:44:35;15.30;99.90
14995;DHT22;7593;49.006;8.372;2024-03-22T07:47:01;15.50;99.90
14995;DHT22;7593;49.006;8.372;2024-03-22T07:49:29;15.70;99.90
14995;DHT22;7593;49.006;8.372;2024-03-22T07:51:55;15.70;99.90
14995;DHT22;7593;49.006;8.372;2024-03-22T07:54:21;15.70;99.90
14995;DHT22;7593;49.006;8.372;2024-03-22T07:56:47;15.60;99.90
14995;DHT22;7593;49.006;8.372;2024-03-22T07:59:15;15.60;99.90
14995;DHT22;7593;49.006;8.372;2024-03-22T08:01:40;15.70;99.90
14995;DHT22;7593;49.006;8.372;2024-03-22T08:04:07;15.80;99.90
14995;DHT22;7593;49.006;8.372;2024-03-22T08:06:34;15.80;99.90
14995;DHT22;7593;49.006;8.372;2024-03-22T08:09:01;15.90;99.90
14995;DHT22;7593;49.006;8.372;2024-03-22T08:11:28;16.10;99.90
14995;DHT22;7593;49.006;8.372;2024-03-22T08:13:56;16.30;99.90
14995;DHT22;7593;49.006;8.372;2024-03-22T08:16:27;16.60;99.90
14995;DHT22;7593;49.006;8.372;2024-03-22T08:18:54;16.90;99.90
14995;DHT22;7593;49.006;8.372;2024-03-22T08:21:20;17.20;99.90
14995;DHT22;7593;49.006;8.372;2024-03-22T08:23:48;17.30;99.90
14995;DHT22;7593;49.006;8.372;2024-03-22T08:26:14;17.40;99.90
14995;DHT22;7593;49.006;8.372;2024-03-22T08:28:41;17.50;99.90
14995;DHT22;7593;49.006;8.372;2024-03-22T08:31:06;17.40;99.90
14995;DHT22;7593;49.006;8.372;2024-03-22T08:33:33;17.30;99.90
14995;DHT22;7593;49.006;8.372;2024-03-22T08:35:59;17.20;99.90
14995;DHT22;7593;49.006;8.372;2024-03-22T08:38:26;17.20;99.90
14995;DHT22;7593;49.006;8.372;2024-03-22T08:40:54;17.20;99.90
14995;DHT22;7593;49.006;8.372;2024-03-22T08:43:21;17.10;99.90
14995;DHT22;7593;49.006;8.372;2024-03-22T08:45:48;17.00;99.90
14995;DHT22;7593;49.006;8.372;2024-03-22T08:48:15;16.90;99.90
14995;DHT22;7593;49.006;8.372;2024-03-22T08:50:42;16.80;99.90
14995;DHT22;7593;49.006;8.372;2024-03-22T08:53:09;16.90;99.90
14995;DHT22;7593;49.006;8.372;2024-03-22T08:55:35;16.80;99.90
14995;DHT22;7593;49.006;8.372;2024-03-22T08:58:03;16.80;99.90
14995;DHT22;7593;49.006;8.372;2024-03-22T09:00:29;16.70;99.90
14995;DHT22;7593;49.006;8.372;2024-03-22T09:02:56;16.60;99.90
14995;DHT22;7593;49.006;8.372;2024-03-22T09:05:22;16.60;99.90
14995;DHT22;7593;49.006;8.372;2024-03-22T09:07:49;16.60;99.90
14995;DHT22;7593;49.006;8.372;2024-03-22T09:10:15;16.60;99.90
14995;DHT22;7593;49.006;8.372;2024-03-22T09:12:42;16.70;99.90
14995;DHT22;7593;49.006;8.372;2024-03-22T09:15:10;16.70;99.90
14995;DHT22;7593;49.006;8.372;2024-03-22T09:17:37;16.60;99.90
14995;DHT22;7593;49.006;8.372;2024-03-22T09:20:03;16.60;99.90
14995;DHT22;7593;49.006;8.372;2024-03-22T09:22:30;16.60;99.90
14995;DHT22;7593;49.006;8.372;2024-03-22T09:24:58;16.70;99.90
14995;DHT22;7593;49.006;8.372;2024-03-22T09:27:25;16.80;99.90
14995;DHT22;7593;49.006;8.372;2024-03-22T09:29:50;16.80;99.90
14995;DHT22;7593;49.006;8.372;2024-03-22T09:32:19;16.70;99.90
14995;DHT22;7593;49.006;8.372;2024-03-22T09:34:45;16.80;99.90
14995;DHT22;7593;49.006;8.372;2024-03-22T09:37:12;16.90;99.90
14995;DHT22;7593;49.006;8.372;2024-03-22T09:39:38;16.90;99.90
14995;DHT22;7593;49.006;8.372;2024-03-22T09:42:06;16.90;99.90
14995;DHT22;7593;49.006;8.372;2024-03-22T09:44:32;16.90;99.90
14995;DHT22;7593;49.006;8.372;2024-03-22T09:47:00;16.80;99.90
14995;DHT22;7593;49.006;8.372;2024-03-22T09:49:27;16.70;99.90
14995;DHT22;7593;49.006;8.372;2024-03-22T09:51:54;16.70;99.90
14995;DHT22;7593;49.006;8.372;2024-03-22T09:54:23;16.70;99.90
14995;DHT22;7593;49.006;8.372;2024-03-22T09:56:50;16.70;99.90
14995;DHT22;7593;49.006;8.372;2024-03-22T09:59:17;16.80;99.90
14995;DHT22;7593;49.006;8.372;2024-03-22T10:01:44;16.80;99.90
14995;DHT22;7593;49.006;8.372;2024-03-22T10:04:11;16.80;99.90
14995;DHT22;7593;49.006;8.372;2024-03-22T10:06:39;16.90;99.90
14995;DHT22;7593;49.006;8.372;2024-03-22T10:09:05;17.00;99.90
14995;DHT22;7593;49.006;8.372;2024-03-22T10:11:34;17.00;99.90
14995;DHT22;7593;49.006;8.372;2024-03-22T10:14:00;17.10;99.90
14995;DHT22;7593;49.006;8.372;2024-03-22T10:16:34;17.10;99.90
14995;DHT22;7593;49.006;8.372;2024-03-22T10:18:59;17.10;99.90
14995;DHT22;7593;49.006;8.372;2024-03-22T10:21:26;17.10;99.90
14995;DHT22;7593;49.006;8.372;2024-03-22T10:23:55;17.20;99.90
14995;DHT22;7593;49.006;8.372;2024-03-22T10:26:23;17.20;99.90
14995;DHT22;7593;49.006;8.372;2024-03-22T10:28:51;17.30;99.90
14995;DHT22;7593;49.006;8.372;2024-03-22T10:31:20;17.50;99.90
14995;DHT22;7593;49.006;8.372;2024-03-22T10:33:46;17.50;99.90
14995;DHT22;7593;49.006;8.372;2024-03-22T10:36:13;17.60;99.70
14995;DHT22;7593;49.006;8.372;2024-03-22T10:38:42;17.50;99.50
14995;DHT22;7593;49.006;8.372;2024-03-22T10:41:11;17.20;99.70
14995;DHT22;7593;49.006;8.372;2024-03-22T10:43:37;17.30;99.90
14995;DHT22;7593;49.006;8.372;2024-03-22T10:46:04;17.30;99.80
14995;DHT22;7593;49.006;8.372;2024-03-22T10:48:31;17.30;99.70
14995;DHT22;7593;49.006;8.372;2024-03-22T10:51:00;17.40;99.70
14995;DHT22;7593;49.006;8.372;2024-03-22T10:53:27;17.50;99.50
14995;DHT22;7593;49.006;8.372;2024-03-22T10:55:56;17.50;99.20
14995;DHT22;7593;49.006;8.372;2024-03-22T10:58:27;17.40;99.20
14995;DHT22;7593;49.006;8.372;2024-03-22T11:00:54;17.40;99.10
14995;DHT22;7593;49.006;8.372;2024-03-22T11:03:21;17.50;99.30
14995;DHT22;7593;49.006;8.372;2024-03-22T11:05:49;17.60;99.30
14995;DHT22;7593;49.006;8.372;2024-03-22T11:08:23;17.60;98.90
14995;DHT22;7593;49.006;8.372;2024-03-22T11:10:51;17.70;98.60
14995;DHT22;7593;49.006;8.372;2024-03-22T11:13:17;17.60;98.80
14995;DHT22;7593;49.006;8.372;2024-03-22T11:15:47;17.70;98.80
14995;DHT22;7593;49.006;8.372;2024-03-22T11:18:14;17.70;98.70
14995;DHT22;7593;49.006;8.372;2024-03-22T11:20:42;17.70;98.60
14995;DHT22;7593;49.006;8.372;2024-03-22T11:23:09;17.70;98.60
14995;DHT22;7593;49.006;8.372;2024-03-22T11:25:35;17.60;98.60
14995;DHT22;7593;49.006;8.372;2024-03-22T11:28:01;17.70;98.50
14995;DHT22;7593;49.006;8.372;2024-03-22T11:30:29;17.70;98.40
14995;DHT22;7593;49.006;8.372;2024-03-22T11:32:56;17.80;98.40
14995;DHT22;7593;49.006;8.372;2024-03-22T11:35:23;18.00;98.40
14995;DHT22;7593;49.006;8.372;2024-03-22T11:37:50;18.00;98.10
14995;DHT22;7593;49.006;8.372;2024-03-22T11:40:17;18.20;98.20
14995;DHT22;7593;49.006;8.372;2024-03-22T11:42:46;18.10;97.50
14995;DHT22;7593;49.006;8.372;2024-03-22T11:45:15;18.10;97.30
14995;DHT22;7593;49.006;8.372;2024-03-22T11:47:42;18.00;97.20
14995;DHT22;7593;49.006;8.372;2024-03-22T11:50:11;18.00;97.20
14995;DHT22;7593;49.006;8.372;2024-03-22T11:52:40;18.10;97.10
14995;DHT22;7593;49.006;8.372;2024-03-22T11:55:07;18.10;97.00
14995;DHT22;7593;49.006;8.372;2024-03-22T11:57:33;18.20;96.80
14995;DHT22;7593;49.006;8.372;2024-03-22T12:00:01;18.20;96.60
14995;DHT22;7593;49.006;8.372;2024-03-22T12:02:27;18.20;96.70
14995;DHT22;7593;49.006;8.372;2024-03-22T12:04:54;18.30;96.90
14995;DHT22;7593;49.006;8.372;2024-03-22T12:07:21;18.40;96.90
14995;DHT22;7593;49.006;8.372;2024-03-22T12:09:48;18.50;97.00
14995;DHT22;7593;49.006;8.372;2024-03-22T12:12:14;18.60;96.70
14995;DHT22;7593;49.006;8.372;2024-03-22T12:14:41;18.70;96.50
14995;DHT22;7593;49.006;8.372;2024-03-22T12:17:07;18.70;96.20
14995;DHT22;7593;49.006;8.372;2024-03-22T12:19:34;18.80;96.20
14995;DHT22;7593;49.006;8.372;2024-03-22T12:22:01;18.90;96.20
14995;DHT22;7593;49.006;8.372;2024-03-22T12:24:29;18.80;95.10
14995;DHT22;7593;49.006;8.372;2024-03-22T12:26:55;19.00;95.10
14995;DHT22;7593;49.006;8.372;2024-03-22T12:29:22;19.10;94.70
14995;DHT22;7593;49.006;8.372;2024-03-22T12:31:49;19.40;94.30
14995;DHT22;7593;49.006;8.372;2024-03-22T12:34:16;19.80;93.30
14995;DHT22;7593;49.006;8.372;2024-03-22T12:36:42;20.20;92.10
14995;DHT22;7593;49.006;8.372;2024-03-22T12:39:08;20.50;91.00
14995;DHT22;7593;49.006;8.372;2024-03-22T12:41:36;20.50;90.80
14995;DHT22;7593;49.006;8.372;2024-03-22T12:44:03;20.50;90.60
14995;DHT22;7593;49.006;8.372;2024-03-22T12:46:29;20.50;90.30
14995;DHT22;7593;49.006;8.372;2024-03-22T12:48:55;20.40;89.70
14995;DHT22;7593;49.006;8.372;2024-03-22T12:51:21;20.30;90.30
14995;DHT22;7593;49.006;8.372;2024-03-22T12:53:49;20.20;90.00
14995;DHT22;7593;49.006;8.372;2024-03-22T12:56:15;20.20;89.90
14995;DHT22;7593;49.006;8.372;2024-03-22T12:58:43;20.30;90.20
14995;DHT22;7593;49.006;8.372;2024-03-22T13:01:09;20.60;90.00
14995;DHT22;7593;49.006;8.372;2024-03-22T13:03:36;20.90;87.50
14995;DHT22;7593;49.006;8.372;2024-03-22T13:06:03;20.60;86.10
14995;DHT22;7593;49.006;8.372;2024-03-22T13:08:30;20.30;86.00
14995;DHT22;7593;49.006;8.372;2024-03-22T13:10:56;20.10;86.90
14995;DHT22;7593;49.006;8.372;2024-03-22T13:13:23;19.90;87.20
14995;DHT22;7593;49.006;8.372;2024-03-22T13:15:50;19.70;88.30
14995;DHT22;7593;49.006;8.372;2024-03-22T13:18:17;19.70;89.40
14995;DHT22;7593;49.006;8.372;2024-03-22T13:20:43;19.60;89.40
14995;DHT22;7593;49.006;8.372;2024-03-22T13:23:10;19.60;89.60
14995;DHT22;7593;49.006;8.372;2024-03-22T13:25:38;19.60;88.90
14995;DHT22;7593;49.006;8.372;2024-03-22T13:28:05;19.50;88.70
14995;DHT22;7593;49.006;8.372;2024-03-22T13:30:31;19.40;88.80
14995;DHT22;7593;49.006;8.372;2024-03-22T13:32:59;19.30;89.40
14995;DHT22;7593;49.006;8.372;2024-03-22T13:35:25;19.10;89.80
14995;DHT22;7593;49.006;8.372;2024-03-22T13:37:52;19.00;90.00
14995;DHT22;7593;49.006;8.372;2024-03-22T13:40:17;18.80;90.40
14995;DHT22;7593;49.006;8.372;2024-03-22T13:42:45;18.70;90.80
14995;DHT22;7593;49.006;8.372;2024-03-22T13:45:11;18.60;91.20
14995;DHT22;7593;49.006;8.372;2024-03-22T13:47:38;18.60;91.40
14995;DHT22;7593;49.006;8.372;2024-03-22T13:50:07;18.50;91.80
14995;DHT22;7593;49.006;8.372;2024-03-22T13:52:35;18.40;92.10
14995;DHT22;7593;49.006;8.372;2024-03-22T13:55:01;18.30;92.30
14995;DHT22;7593;49.006;8.372;2024-03-22T13:57:28;18.30;92.40
14995;DHT22;7593;49.006;8.372;2024-03-22T13:59:53;18.20;92.50
14995;DHT22;7593;49.006;8.372;2024-03-22T14:02:20;18.20;92.80
14995;DHT22;7593;49.006;8.372;2024-03-22T14:04:46;18.10;92.80
14995;DHT22;7593;49.006;8.372;2024-03-22T14:07:14;18.10;92.90
14995;DHT22;7593;49.006;8.372;2024-03-22T14:09:40;18.20;92.90
14995;DHT22;7593;49.006;8.372;2024-03-22T14:12:08;18.20;92.80
14995;DHT22;7593;49.006;8.372;2024-03-22T14:14:34;18.20;92.80
14995;DHT22;7593;49.006;8.372;2024-03-22T14:17:01;18.10;92.80
14995;DHT22;7593;49.006;8.372;2024-03-22T14:19:27;18.10;93.10
14995;DHT22;7593;49.006;8.372;2024-03-22T14:21:53;18.10;93.10
14995;DHT22;7593;49.006;8.372;2024-03-22T14:24:21;18.10;93.10
14995;DHT22;7593;49.006;8.372;2024-03-22T14:26:47;18.00;93.30
14995;DHT22;7593;49.006;8.372;2024-03-22T14:29:13;18.10;93.30
14995;DHT22;7593;49.006;8.372;2024-03-22T14:31:40;18.10;93.40
14995;DHT22;7593;49.006;8.372;2024-03-22T14:34:08;18.10;93.50
14995;DHT22;7593;49.006;8.372;2024-03-22T14:36:35;18.10;93.50
14995;DHT22;7593;49.006;8.372;2024-03-22T14:39:01;18.00;93.80
14995;DHT22;7593;49.006;8.372;2024-03-22T14:41:31;18.00;93.80
14995;DHT22;7593;49.006;8.372;2024-03-22T14:43:57;18.10;93.90
14995;DHT22;7593;49.006;8.372;2024-03-22T14:46:24;18.00;93.70
14995;DHT22;7593;49.006;8.372;2024-03-22T14:48:54;18.20;93.90
14995;DHT22;7593;49.006;8.372;2024-03-22T14:51:20;18.20;93.90
14995;DHT22;7593;49.006;8.372;2024-03-22T14:53:46;18.20;94.00
14995;DHT22;7593;49.006;8.372;2024-03-22T14:56:16;18.30;94.10
14995;DHT22;7593;49.006;8.372;2024-03-22T14:58:45;18.30;94.10
14995;DHT22;7593;49.006;8.372;2024-03-22T15:01:12;18.30;93.90
14995;DHT22;7593;49.006;8.372;2024-03-22T15:03:38;18.20;93.90
14995;DHT22;7593;49.006;8.372;2024-03-22T15:06:05;18.20;93.90
14995;DHT22;7593;49.006;8.372;2024-03-22T15:08:30;18.10;93.80
14995;DHT22;7593;49.006;8.372;2024-03-22T15:10:58;18.10;93.80
14995;DHT22;7593;49.006;8.372;2024-03-22T15:13:23;18.20;93.80
14995;DHT22;7593;49.006;8.372;2024-03-22T15:15:55;18.50;93.70
14995;DHT22;7593;49.006;8.372;2024-03-22T15:18:21;18.70;93.10
14995;DHT22;7593;49.006;8.372;2024-03-22T15:20:49;18.90;93.00
14995;DHT22;7593;49.006;8.372;2024-03-22T15:23:15;19.00;92.80
14995;DHT22;7593;49.006;8.372;2024-03-22T15:25:42;19.40;92.50
14995;DHT22;7593;49.006;8.372;2024-03-22T15:28:08;19.80;92.20
14995;DHT22;7593;49.006;8.372;2024-03-22T15:30:35;20.30;91.40
14995;DHT22;7593;49.006;8.372;2024-03-22T15:33:03;20.60;90.80
14995;DHT22;7593;49.006;8.372;2024-03-22T15:35:30;20.50;90.80
14995;DHT22;7593;49.006;8.372;2024-03-22T15:37:56;20.50;90.80
14995;DHT22;7593;49.006;8.372;2024-03-22T15:40:23;20.30;90.90
14995;DHT22;7593;49.006;8.372;2024-03-22T15:42:49;20.10;91.10
14995;DHT22;7593;49.006;8.372;2024-03-22T15:45:16;19.90;91.40
14995;DHT22;7593;49.006;8.372;2024-03-22T15:47:43;19.60;91.80